createdAt,value
2019-01-09T04:01:22.998Z,981.25
2019-01-09T04:04:32.973Z,981.23
2019-01-09T04:07:56.305Z,981.22
2019-01-09T04:08:54.312Z,981.29
2019-01-09T04:09:54.808Z,981.20
2019-01-09T04:13:29.621Z,981.32
2019-01-09T04:14:30.296Z,981.27
2019-01-09T04:15:30.278Z,981.22
2019-01-09T04:16:34.992Z,981.28
2019-01-09T04:28:59.924Z,981.27
2019-01-09T04:43:21.791Z,981.33
2019-01-09T04:44:26.123Z,981.30
2019-01-09T04:46:58.783Z,981.27
2019-01-09T04:49:46.692Z,981.33
2019-01-09T04:59:47.158Z,981.45
2019-01-09T05:00:45.771Z,981.48
2019-01-09T05:05:11.773Z,981.44
2019-01-09T05:06:47.931Z,981.44
2019-01-09T05:07:12.410Z,981.49
2019-01-09T05:09:47.827Z,981.40
2019-01-09T05:13:23.136Z,981.42
2019-01-09T05:14:47.594Z,981.46
2019-01-09T05:22:10.148Z,981.52
2019-01-09T05:23:07.584Z,981.50
2019-01-09T05:23:53.521Z,981.57
2019-01-09T05:25:02.645Z,981.49
2019-01-09T05:25:54.743Z,981.52
2019-01-09T05:26:59.039Z,981.51
2019-01-09T05:27:54.299Z,981.53
2019-01-09T05:36:08.605Z,981.58
2019-01-09T05:57:31.733Z,981.64
2019-01-09T05:58:43.604Z,981.59
2019-01-09T06:27:30.596Z,981.81
2019-01-09T06:33:21.895Z,981.88
2019-01-09T06:44:49.953Z,981.97
2019-01-09T06:45:51.871Z,981.97
2019-01-09T06:46:50.686Z,982.00
2019-01-09T06:47:50.490Z,982.05
2019-01-09T06:48:50.576Z,982.00
2019-01-09T06:49:49.241Z,982.04
2019-01-09T06:50:48.785Z,982.09
2019-01-09T06:51:48.953Z,982.08
2019-01-09T06:52:48.967Z,982.13
2019-01-09T06:53:49.082Z,982.22
2019-01-09T06:54:49.410Z,982.19
2019-01-09T06:55:49.438Z,982.16
2019-01-09T06:56:49.536Z,982.21
2019-01-09T06:57:49.876Z,982.17
2019-01-09T06:58:50.039Z,982.22
2019-01-09T06:59:49.981Z,982.21
2019-01-09T07:00:50.642Z,982.27
2019-01-09T07:01:50.896Z,982.24
2019-01-09T07:02:50.532Z,982.20
2019-01-09T07:03:50.752Z,982.23
2019-01-09T07:04:50.949Z,982.22
2019-01-09T07:05:51.150Z,982.24
2019-01-09T07:06:51.272Z,982.36
2019-01-09T07:07:51.649Z,982.21
2019-01-09T07:08:51.663Z,982.29
2019-01-09T07:09:52.148Z,982.26
2019-01-09T07:10:52.068Z,982.37
2019-01-09T07:11:51.921Z,982.25
2019-01-09T07:12:52.075Z,982.33
2019-01-09T07:13:52.189Z,982.34
2019-01-09T07:14:52.401Z,982.29
2019-01-09T07:15:53.085Z,982.34
2019-01-09T07:16:54.823Z,982.32
2019-01-09T07:17:53.244Z,982.34
2019-01-09T07:18:53.048Z,982.34
2019-01-09T07:19:53.757Z,982.38
2019-01-09T07:20:53.551Z,982.34
2019-01-09T07:21:53.537Z,982.35
2019-01-09T07:22:53.743Z,982.32
2019-01-09T07:23:54.697Z,982.40
2019-01-09T07:24:55.059Z,982.42
2019-01-09T07:25:54.918Z,982.46
2019-01-09T07:26:55.021Z,982.45
2019-01-09T07:27:54.936Z,982.43
2019-01-09T07:28:55.171Z,982.50
2019-01-09T07:29:55.329Z,982.45
2019-01-09T07:30:55.373Z,982.46
2019-01-09T07:31:55.459Z,982.47
2019-01-09T07:32:55.717Z,982.47
2019-01-09T07:33:56.099Z,982.47
2019-01-09T07:34:55.948Z,982.54
2019-01-09T07:35:55.910Z,982.57
2019-01-09T07:36:55.903Z,982.51
2019-01-09T07:37:56.176Z,982.55
2019-01-09T07:38:56.450Z,982.43
2019-01-09T07:39:56.682Z,982.53
2019-01-09T07:40:56.582Z,982.58
2019-01-09T07:41:56.709Z,982.58
2019-01-09T07:42:57.629Z,982.60
2019-01-09T07:45:43.650Z,982.59
2019-01-09T07:46:44.761Z,982.59
2019-01-09T07:47:44.362Z,982.63
2019-01-09T07:48:44.516Z,982.65
2019-01-09T07:49:45.387Z,982.60
2019-01-09T07:50:45.052Z,982.62
2019-01-09T07:51:45.004Z,982.68
2019-01-09T07:53:47.492Z,982.65
2019-01-09T07:54:46.033Z,982.63
2019-01-09T07:55:47.608Z,982.64
2019-01-09T07:56:44.563Z,982.69
2019-01-09T07:57:45.485Z,982.67
2019-01-09T07:58:43.973Z,982.69
2019-01-09T07:59:43.849Z,982.66
2019-01-09T08:00:44.036Z,982.70
2019-01-09T08:01:44.383Z,982.72
2019-01-09T08:02:44.350Z,982.61
2019-01-09T08:03:44.452Z,982.61
2019-01-09T08:04:44.674Z,982.69
2019-01-09T08:05:44.782Z,982.66
2019-01-09T08:06:44.999Z,982.62
2019-01-09T08:07:53.586Z,982.63
2019-01-09T08:08:46.399Z,982.62
2019-01-09T08:09:45.993Z,982.65
2019-01-09T08:10:46.453Z,982.65
2019-01-09T08:11:58.544Z,982.66
2019-01-09T08:38:36.168Z,983.00
2019-01-09T08:44:39.509Z,983.02
2019-01-09T08:45:28.716Z,983.03
2019-01-09T08:46:20.176Z,983.06
2019-01-09T09:00:34.524Z,983.28
2019-01-09T09:02:24.889Z,983.26
2019-01-09T09:02:52.919Z,983.28
2019-01-09T09:08:12.001Z,983.39
2019-01-09T09:21:19.556Z,983.51
2019-01-09T09:25:31.435Z,983.53
2019-01-09T09:26:03.539Z,983.53
2019-01-09T09:37:21.517Z,983.64
2019-01-09T09:38:20.122Z,983.57
2019-01-09T09:39:17.686Z,983.70
2019-01-09T09:45:16.451Z,983.70
2019-01-09T09:46:17.883Z,983.74
2019-01-09T09:47:36.614Z,983.71
2019-01-09T09:48:24.163Z,983.82
2019-01-09T09:49:23.566Z,983.80
2019-01-09T09:50:21.605Z,983.79
2019-01-09T09:51:26.671Z,983.77
2019-01-09T09:52:24.327Z,983.86
2019-01-09T09:53:31.461Z,983.78
2019-01-09T09:54:23.329Z,983.80
2019-01-09T09:55:24.857Z,983.89
2019-01-09T09:56:24.076Z,983.81
2019-01-09T09:57:18.463Z,983.84
2019-01-09T09:58:22.630Z,983.81
2019-01-09T09:59:19.289Z,983.83
2019-01-09T10:01:55.396Z,983.80
2019-01-09T10:02:55.057Z,983.91
2019-01-09T10:03:52.441Z,983.85
2019-01-09T10:04:55.456Z,983.86
2019-01-09T10:05:53.662Z,983.88
2019-01-09T10:06:53.490Z,983.93
2019-01-09T10:07:52.974Z,983.81
2019-01-09T10:08:53.119Z,983.84
2019-01-09T10:09:53.302Z,983.85
2019-01-09T10:10:53.619Z,983.89
2019-01-09T10:11:53.669Z,983.98
2019-01-09T10:12:54.103Z,983.96
2019-01-09T10:13:54.209Z,983.84
2019-01-09T10:14:54.161Z,983.83
2019-01-09T10:15:54.721Z,983.88
2019-01-09T10:16:54.603Z,983.81
2019-01-09T10:17:54.632Z,983.80
2019-01-09T10:18:54.793Z,983.89
2019-01-09T10:19:55.130Z,983.85
2019-01-09T10:20:55.083Z,983.85
2019-01-09T10:21:55.281Z,983.90
2019-01-09T10:22:55.744Z,983.92
2019-01-09T10:23:55.654Z,983.88
2019-01-09T10:24:55.979Z,983.93
2019-01-09T10:25:56.040Z,983.96
2019-01-09T10:26:56.167Z,983.91
2019-01-09T10:27:56.251Z,984.00
2019-01-09T10:28:56.387Z,983.95
2019-01-09T10:29:56.593Z,984.02
2019-01-09T10:30:56.731Z,983.93
2019-01-09T10:31:59.107Z,983.98
2019-01-09T10:32:57.038Z,983.99
2019-01-09T10:33:57.216Z,983.99
2019-01-09T10:34:57.519Z,984.01
2019-01-09T10:35:57.726Z,984.01
2019-01-09T10:36:57.778Z,984.04
2019-01-09T10:37:57.901Z,984.03
2019-01-09T10:38:58.160Z,984.11
2019-01-09T10:39:58.488Z,984.03
2019-01-09T10:40:58.389Z,984.06
2019-01-09T10:41:58.612Z,984.02
2019-01-09T10:42:58.816Z,984.05
2019-01-09T10:43:58.881Z,984.07
2019-01-09T10:44:59.091Z,984.11
2019-01-09T10:45:59.202Z,984.16
2019-01-09T10:46:59.482Z,984.11
2019-01-09T10:47:59.729Z,984.12
2019-01-09T10:48:59.790Z,984.13
2019-01-09T10:49:59.983Z,984.13
2019-01-09T10:51:00.150Z,984.15
2019-01-09T10:52:00.292Z,984.11
2019-01-09T10:53:00.340Z,984.13
2019-01-09T10:54:00.720Z,984.13
2019-01-09T10:55:00.714Z,984.15
2019-01-09T10:56:00.964Z,984.20
2019-01-09T10:57:01.140Z,984.18
2019-01-09T10:58:01.265Z,984.21
2019-01-09T10:59:01.430Z,984.14
2019-01-09T11:00:01.656Z,984.20
2019-01-09T11:01:01.784Z,984.21
2019-01-09T11:02:02.014Z,984.30
2019-01-09T11:03:02.089Z,984.22
2019-01-09T11:04:02.246Z,984.27
2019-01-09T11:05:02.401Z,984.29
2019-01-09T11:06:02.594Z,984.28
2019-01-09T11:07:02.687Z,984.27
2019-01-09T11:08:02.916Z,984.35
2019-01-09T11:09:03.057Z,984.26
2019-01-09T11:10:03.252Z,984.30
2019-01-09T11:11:03.475Z,984.36
2019-01-09T11:12:03.585Z,984.38
2019-01-09T11:13:03.664Z,984.28
2019-01-09T11:14:03.864Z,984.23
2019-01-09T11:15:03.981Z,984.29
2019-01-09T11:16:04.270Z,984.32
2019-01-09T11:17:04.361Z,984.31
2019-01-09T11:18:04.499Z,984.41
2019-01-09T11:19:04.685Z,984.34
2019-01-09T11:20:04.848Z,984.35
2019-01-09T11:21:04.965Z,984.37
2019-01-09T11:22:05.209Z,984.30
2019-01-09T11:23:05.350Z,984.27
2019-01-09T11:24:05.472Z,984.30
2019-01-09T11:25:05.608Z,984.29
2019-01-09T11:26:05.861Z,984.27
2019-01-09T11:27:06.039Z,984.28
2019-01-09T11:28:06.180Z,984.30
2019-01-09T11:29:06.456Z,984.30
2019-01-09T11:30:06.639Z,984.32
2019-01-09T11:31:06.731Z,984.31
2019-01-09T11:32:06.880Z,984.36
2019-01-09T11:33:07.021Z,984.30
2019-01-09T11:34:07.232Z,984.49
2019-01-09T11:35:07.399Z,984.37
2019-01-09T11:36:07.590Z,984.33
2019-01-09T11:37:07.691Z,984.33
2019-01-09T11:38:07.878Z,984.28
2019-01-09T11:39:08.073Z,984.31
2019-01-09T11:40:08.189Z,984.27
2019-01-09T11:41:08.452Z,984.32
2019-01-09T11:42:08.520Z,984.33
2019-01-09T11:43:08.728Z,984.31
2019-01-09T11:44:08.814Z,984.30
2019-01-09T11:45:09.050Z,984.28
2019-01-09T11:46:09.173Z,984.27
2019-01-09T11:47:09.415Z,984.26
2019-01-09T11:48:09.560Z,984.25
2019-01-09T11:49:10.359Z,984.27
2019-01-09T11:50:09.967Z,984.21
2019-01-09T11:51:10.185Z,984.21
2019-01-09T11:52:10.231Z,984.17
2019-01-09T11:53:10.484Z,984.22
2019-01-09T11:54:10.602Z,984.16
2019-01-09T11:55:10.697Z,984.16
2019-01-09T11:56:10.917Z,984.19
2019-01-09T11:57:11.135Z,984.14
2019-01-09T11:58:11.277Z,984.15
2019-01-09T11:59:11.434Z,984.13
2019-01-09T12:00:11.536Z,984.19
2019-01-09T12:01:11.737Z,984.17
2019-01-09T12:02:11.899Z,984.15
2019-01-09T12:03:12.065Z,984.16
2019-01-09T12:04:12.148Z,984.09
2019-01-09T12:05:12.390Z,984.19
2019-01-09T12:06:12.540Z,984.12
2019-01-09T12:07:12.663Z,984.10
2019-01-09T12:08:12.854Z,984.11
2019-01-09T12:09:13.060Z,984.19
2019-01-09T12:10:13.177Z,984.14
2019-01-09T12:11:13.414Z,984.17
2019-01-09T12:12:13.527Z,984.15
2019-01-09T12:13:13.578Z,984.23
2019-01-09T12:14:13.792Z,984.22
2019-01-09T12:15:13.963Z,984.19
2019-01-09T12:16:14.067Z,984.23
2019-01-09T12:17:14.339Z,984.22
2019-01-09T12:18:14.500Z,984.31
2019-01-09T12:19:14.722Z,984.30
2019-01-09T12:20:14.889Z,984.26
2019-01-09T12:21:16.608Z,984.27
2019-01-09T12:22:15.142Z,984.31
2019-01-09T12:23:15.357Z,984.33
2019-01-09T12:24:15.602Z,984.28
2019-01-09T12:25:15.687Z,984.35
2019-01-09T12:26:15.813Z,984.35
2019-01-09T12:27:15.966Z,984.36
2019-01-09T12:28:16.219Z,984.34
2019-01-09T12:29:16.263Z,984.34
2019-01-09T12:30:16.610Z,984.37
2019-01-09T12:31:16.645Z,984.38
2019-01-09T12:32:16.953Z,984.38
2019-01-09T12:33:17.078Z,984.42
2019-01-09T12:34:17.216Z,984.54
2019-01-09T12:35:17.335Z,984.45
2019-01-09T12:36:17.480Z,984.50
2019-01-09T12:37:17.640Z,984.52
2019-01-09T12:38:17.778Z,984.46
2019-01-09T12:39:17.914Z,984.54
2019-01-09T12:40:18.101Z,984.49
2019-01-09T12:41:18.335Z,984.51
2019-01-09T12:42:18.483Z,984.47
2019-01-09T12:43:18.976Z,984.49
2019-01-09T12:44:19.094Z,984.50
2019-01-09T12:45:19.637Z,984.50
2019-01-09T12:46:30.834Z,984.47
2019-01-09T12:47:23.576Z,984.50
2019-01-09T12:48:22.886Z,984.46
2019-01-09T12:49:35.661Z,984.43
2019-01-09T12:50:25.585Z,984.47
2019-01-09T12:51:23.155Z,984.46
2019-01-09T12:52:21.380Z,984.52
2019-01-09T12:53:21.327Z,984.54
2019-01-09T12:54:21.176Z,984.50
2019-01-09T12:55:20.932Z,984.59
2019-01-09T12:56:21.396Z,984.51
2019-01-09T12:57:21.222Z,984.58
2019-01-09T12:59:22.096Z,984.57
2019-01-09T13:00:21.808Z,984.55
2019-01-09T13:01:22.201Z,984.57
2019-01-09T13:02:22.391Z,984.65
2019-01-09T13:03:22.422Z,984.67
2019-01-09T13:04:22.643Z,984.61
2019-01-09T13:05:22.593Z,984.63
2019-01-09T13:06:22.822Z,984.64
2019-01-09T13:07:23.163Z,984.66
2019-01-09T13:08:23.462Z,984.65
2019-01-09T13:09:23.379Z,984.68
2019-01-09T13:10:23.458Z,984.63
2019-01-09T13:11:23.593Z,984.76
2019-01-09T13:12:24.532Z,984.73
2019-01-09T13:13:23.962Z,984.74
2019-01-09T13:14:24.085Z,984.69
2019-01-09T13:15:24.339Z,984.74
2019-01-09T13:16:24.491Z,984.74
2019-01-09T13:17:24.711Z,984.73
2019-01-09T13:18:25.041Z,984.79
2019-01-09T13:19:25.097Z,984.80
2019-01-09T13:20:25.167Z,984.82
2019-01-09T13:21:25.382Z,984.78
2019-01-09T13:22:26.524Z,984.83
2019-01-09T13:23:26.216Z,984.82
2019-01-09T13:24:25.941Z,984.92
2019-01-09T13:25:25.930Z,984.93
2019-01-09T13:26:26.172Z,984.90
2019-01-09T13:27:26.413Z,984.90
2019-01-09T13:28:26.673Z,984.97
2019-01-09T13:29:26.645Z,984.95
2019-01-09T13:30:26.803Z,984.96
2019-01-09T13:31:27.216Z,984.94
2019-01-09T13:32:27.492Z,984.97
2019-01-09T13:33:27.480Z,984.96
2019-01-09T13:34:27.611Z,984.96
2019-01-09T13:35:28.447Z,984.96
2019-01-09T13:36:28.850Z,985.00
2019-01-09T13:37:27.865Z,985.04
2019-01-09T13:38:27.857Z,985.04
2019-01-09T13:39:30.818Z,985.05
2019-01-09T13:40:28.225Z,985.02
2019-01-09T13:41:28.307Z,985.04
2019-01-09T13:42:28.503Z,985.03
2019-01-09T13:43:28.711Z,984.98
2019-01-09T13:44:28.786Z,984.97
2019-01-09T13:45:28.955Z,985.06
2019-01-09T13:46:29.178Z,985.06
2019-01-09T13:47:29.281Z,985.05
2019-01-09T13:48:29.398Z,984.99
2019-01-09T13:49:29.623Z,985.04
2019-01-09T13:50:29.783Z,985.05
2019-01-09T13:51:30.062Z,985.06
2019-01-09T13:52:30.264Z,985.07
2019-01-09T13:53:30.297Z,985.05
2019-01-09T13:54:30.460Z,985.03
2019-01-09T13:55:30.688Z,985.06
2019-01-09T13:56:30.759Z,985.05
2019-01-09T13:57:31.011Z,985.09
2019-01-09T13:58:31.132Z,985.09
2019-01-09T13:59:31.319Z,985.16
2019-01-09T14:00:31.374Z,985.15
2019-01-09T14:01:32.142Z,985.11
2019-01-09T14:02:31.729Z,985.21
2019-01-09T14:03:32.002Z,985.20
2019-01-09T14:04:32.131Z,985.24
2019-01-09T14:05:32.437Z,985.22
2019-01-09T14:06:32.510Z,985.20
2019-01-09T14:07:32.744Z,985.19
2019-01-09T14:08:32.843Z,985.19
2019-01-09T14:09:39.334Z,985.26
2019-01-09T14:10:33.451Z,985.19
2019-01-09T14:11:33.401Z,985.24
2019-01-09T14:12:34.236Z,985.31
2019-01-09T14:13:33.658Z,985.30
2019-01-09T14:14:33.810Z,985.34
2019-01-09T14:15:34.066Z,985.33
2019-01-09T14:16:34.312Z,985.33
2019-01-09T14:17:34.427Z,985.29
2019-01-09T14:18:34.696Z,985.32
2019-01-09T14:19:34.773Z,985.36
2019-01-09T14:20:35.087Z,985.38
2019-01-09T14:21:35.094Z,985.42
2019-01-09T14:22:35.267Z,985.36
2019-01-09T14:23:35.387Z,985.39
2019-01-09T14:24:35.554Z,985.38
2019-01-09T14:25:35.848Z,985.39
2019-01-09T14:26:35.898Z,985.40
2019-01-09T14:27:36.045Z,985.38
2019-01-09T14:28:36.226Z,985.43
2019-01-09T14:29:37.049Z,985.42
2019-01-09T14:30:36.538Z,985.48
2019-01-09T14:31:36.771Z,985.51
2019-01-09T14:32:36.851Z,985.51
2019-01-09T14:33:37.040Z,985.53
2019-01-09T14:34:37.211Z,985.50
2019-01-09T14:35:37.309Z,985.51
2019-01-09T14:36:37.519Z,985.53
2019-01-09T14:37:37.683Z,985.58
2019-01-09T14:38:37.926Z,985.56
2019-01-09T14:39:38.013Z,985.57
2019-01-09T14:40:38.661Z,985.60
2019-01-09T14:41:38.483Z,985.59
2019-01-09T14:42:38.601Z,985.58
2019-01-09T14:43:41.233Z,985.57
2019-01-09T14:44:38.905Z,985.63
2019-01-09T14:45:39.093Z,985.63
2019-01-09T14:46:39.182Z,985.63
2019-01-09T14:47:39.470Z,985.67
2019-01-09T14:48:39.639Z,985.67
2019-01-09T14:49:39.749Z,985.71
2019-01-09T14:50:39.976Z,985.69
2019-01-09T14:51:43.322Z,985.69
2019-01-09T14:52:40.331Z,985.73
2019-01-09T14:53:40.465Z,985.74
2019-01-09T14:54:40.617Z,985.72
2019-01-09T14:55:41.601Z,985.77
2019-01-09T14:56:40.953Z,985.77
2019-01-09T14:57:41.221Z,985.82
2019-01-09T14:58:41.507Z,985.77
2019-01-09T14:59:41.642Z,985.84
2019-01-09T15:00:41.894Z,985.80
2019-01-09T15:01:41.969Z,985.78
2019-01-09T15:02:42.094Z,985.84
2019-01-09T15:03:42.223Z,985.86
2019-01-09T15:04:42.502Z,985.86
2019-01-09T15:05:42.864Z,985.92
2019-01-09T15:06:42.811Z,985.94
2019-01-09T15:07:42.994Z,985.88
2019-01-09T15:08:43.072Z,985.90
2019-01-09T15:09:43.296Z,985.94
2019-01-09T15:10:43.484Z,985.94
2019-01-09T15:11:43.598Z,985.95
2019-01-09T15:12:43.780Z,985.96
2019-01-09T15:13:43.947Z,985.91
2019-01-09T15:14:44.150Z,985.95
2019-01-09T15:15:44.310Z,985.94
2019-01-09T15:16:44.470Z,986.00
2019-01-09T15:17:44.669Z,986.02
2019-01-09T15:18:44.778Z,986.05
2019-01-09T15:19:44.848Z,986.08
2019-01-09T15:20:45.041Z,986.03
2019-01-09T15:21:45.204Z,986.03
2019-01-09T15:22:45.380Z,986.06
2019-01-09T15:23:45.458Z,986.04
2019-01-09T15:24:45.671Z,986.02
2019-01-09T15:25:45.828Z,986.07
2019-01-09T15:26:45.940Z,986.15
2019-01-09T15:27:46.099Z,986.13
2019-01-09T15:28:46.280Z,986.11
2019-01-09T15:29:46.394Z,986.11
2019-01-09T15:30:46.642Z,986.15
2019-01-09T15:31:46.738Z,986.14
2019-01-09T15:32:46.926Z,986.18
2019-01-09T15:33:47.037Z,986.12
2019-01-09T15:34:47.246Z,986.17
2019-01-09T15:35:47.430Z,986.22
2019-01-09T15:36:47.563Z,986.21
2019-01-09T15:37:47.740Z,986.25
2019-01-09T15:38:48.614Z,986.26
2019-01-09T15:39:48.065Z,986.28
2019-01-09T15:40:48.238Z,986.32
2019-01-09T15:41:48.489Z,986.26
2019-01-09T15:42:48.852Z,986.25
2019-01-09T15:43:48.993Z,986.32
2019-01-09T15:44:49.161Z,986.29
2019-01-09T15:45:49.157Z,986.33
2019-01-09T15:46:49.513Z,986.32
2019-01-09T15:47:49.636Z,986.34
2019-01-09T15:48:49.683Z,986.36
2019-01-09T15:49:49.774Z,986.30
2019-01-09T15:50:49.931Z,986.34
2019-01-09T15:51:50.197Z,986.37
2019-01-09T15:52:50.396Z,986.38
2019-01-09T15:53:50.559Z,986.34
2019-01-09T15:54:50.729Z,986.40
2019-01-09T15:55:50.896Z,986.35
2019-01-09T15:56:51.560Z,986.40
2019-01-09T15:57:51.549Z,986.40
2019-01-09T15:58:51.609Z,986.40
2019-01-09T15:59:51.978Z,986.37
2019-01-09T16:00:51.560Z,986.42
2019-01-09T16:01:51.698Z,986.42
2019-01-09T16:02:52.019Z,986.41
2019-01-09T16:03:52.164Z,986.46
2019-01-09T16:04:52.310Z,986.50
2019-01-09T16:05:52.511Z,986.44
2019-01-09T16:06:52.667Z,986.49
2019-01-09T16:07:52.815Z,986.51
2019-01-09T16:08:53.004Z,986.55
2019-01-09T16:09:54.112Z,986.51
2019-01-09T16:10:53.357Z,986.47
2019-01-09T16:11:53.518Z,986.52
2019-01-09T16:12:53.688Z,986.50
2019-01-09T16:13:53.815Z,986.53
2019-01-09T16:14:53.994Z,986.54
2019-01-09T16:15:54.125Z,986.54
2019-01-09T16:16:54.385Z,986.53
2019-01-09T16:17:54.579Z,986.60
2019-01-09T16:18:54.793Z,986.57
2019-01-09T16:19:54.936Z,986.59
2019-01-09T16:20:55.097Z,986.59
2019-01-09T16:21:55.197Z,986.53
2019-01-09T16:22:56.225Z,986.60
2019-01-09T16:23:55.669Z,986.59
2019-01-09T16:24:55.942Z,986.63
2019-01-09T16:25:55.966Z,986.63
2019-01-09T16:26:56.156Z,986.60
2019-01-09T16:27:56.421Z,986.60
2019-01-09T16:28:56.615Z,986.64
2019-01-09T16:29:56.718Z,986.62
2019-01-09T16:30:56.630Z,986.62
2019-01-09T16:31:56.923Z,986.63
2019-01-09T16:32:57.154Z,986.58
2019-01-09T16:33:57.091Z,986.66
2019-01-09T16:34:57.516Z,986.62
2019-01-09T16:35:57.619Z,986.67
2019-01-09T16:36:57.791Z,986.66
2019-01-09T16:37:57.983Z,986.67
2019-01-09T16:38:58.019Z,986.68
2019-01-09T16:39:58.131Z,986.73
2019-01-09T16:40:58.291Z,986.72
2019-01-09T16:41:58.964Z,986.69
2019-01-09T16:42:58.904Z,986.72
2019-01-09T16:43:58.969Z,986.73
2019-01-09T16:44:59.249Z,986.72
2019-01-09T16:45:59.441Z,986.69
2019-01-09T16:46:59.541Z,986.71
2019-01-09T16:47:59.559Z,986.76
2019-01-09T16:48:59.731Z,986.77
2019-01-09T16:49:59.996Z,986.82
2019-01-09T16:50:59.911Z,986.86
2019-01-09T16:52:00.321Z,986.86
2019-01-09T16:53:00.417Z,986.81
2019-01-09T16:54:00.607Z,986.85
2019-01-09T16:55:00.719Z,986.86
2019-01-09T16:56:01.715Z,986.89
2019-01-09T16:57:01.088Z,986.93
2019-01-09T16:58:01.789Z,986.91
2019-01-09T16:59:02.236Z,986.95
2019-01-09T17:00:01.491Z,986.91
2019-01-09T17:01:01.807Z,986.91
2019-01-09T17:02:01.978Z,986.94
2019-01-09T17:03:02.172Z,986.93
2019-01-09T17:04:02.403Z,986.96
2019-01-09T17:05:02.373Z,986.98
2019-01-09T17:06:02.670Z,987.01
2019-01-09T17:07:02.787Z,986.95
2019-01-09T17:08:02.884Z,987.00
2019-01-09T17:09:03.270Z,987.01
2019-01-09T17:10:03.206Z,987.03
2019-01-09T17:11:03.306Z,987.00
2019-01-09T17:12:03.526Z,987.02
2019-01-09T17:13:03.764Z,987.05
2019-01-09T17:14:03.841Z,987.01
2019-01-09T17:15:04.078Z,986.99
2019-01-09T17:16:04.322Z,987.05
2019-01-09T17:17:04.483Z,987.09
2019-01-09T17:18:04.625Z,987.12
2019-01-09T17:19:04.702Z,987.07
2019-01-09T17:20:05.031Z,987.12
2019-01-09T17:21:05.143Z,987.12
2019-01-09T17:22:05.281Z,987.10
2019-01-09T17:23:05.505Z,987.18
2019-01-09T17:24:05.652Z,987.20
2019-01-09T17:25:05.881Z,987.18
2019-01-09T17:26:06.101Z,987.14
2019-01-09T17:27:06.223Z,987.19
2019-01-09T17:28:06.419Z,987.19
2019-01-09T17:29:06.658Z,987.20
2019-01-09T17:30:06.766Z,987.19
2019-01-09T17:31:06.962Z,987.17
2019-01-09T17:32:07.173Z,987.14
2019-01-09T17:33:07.515Z,987.19
2019-01-09T17:34:07.480Z,987.19
2019-01-09T17:35:07.679Z,987.15
2019-01-09T17:36:07.932Z,987.20
2019-01-09T17:37:08.093Z,987.19
2019-01-09T17:38:08.146Z,987.21
2019-01-09T17:39:08.247Z,987.27
2019-01-09T17:40:08.353Z,987.30
2019-01-09T17:41:08.522Z,987.27
2019-01-09T17:42:08.759Z,987.22
2019-01-09T17:43:08.837Z,987.26
2019-01-09T17:44:09.142Z,987.35
2019-01-09T17:45:09.202Z,987.30
2019-01-09T17:46:09.345Z,987.22
2019-01-09T17:47:09.537Z,987.25
2019-01-09T17:48:09.785Z,987.30
2019-01-09T17:49:09.867Z,987.33
2019-01-09T17:50:10.050Z,987.35
2019-01-09T17:51:10.253Z,987.37
2019-01-09T17:52:10.427Z,987.39
2019-01-09T17:53:10.712Z,987.44
2019-01-09T17:54:10.793Z,987.46
2019-01-09T17:55:11.029Z,987.44
2019-01-09T17:56:11.132Z,987.47
2019-01-09T17:57:12.161Z,987.48
2019-01-09T17:58:14.254Z,987.48
2019-01-09T17:59:11.803Z,987.50
2019-01-09T18:00:12.495Z,987.50
2019-01-09T18:02:47.162Z,987.48
2019-01-09T18:03:49.508Z,987.51
2019-01-09T18:04:46.880Z,987.53
2019-01-09T18:05:48.711Z,987.50
2019-01-09T18:06:50.781Z,987.54
2019-01-09T18:07:46.733Z,987.52
2019-01-09T18:08:47.066Z,987.60
2019-01-09T18:09:45.410Z,987.60
2019-01-09T18:10:49.978Z,987.57
2019-01-09T18:11:45.250Z,987.53
2019-01-09T18:12:45.655Z,987.59
2019-01-09T18:13:45.728Z,987.58
2019-01-09T18:14:46.746Z,987.65
2019-01-09T18:15:46.013Z,987.61
2019-01-09T18:16:46.299Z,987.63
2019-01-09T18:17:46.580Z,987.65
2019-01-09T18:18:46.583Z,987.64
2019-01-09T18:19:46.597Z,987.64
2019-01-09T18:20:46.862Z,987.65
2019-01-09T18:21:47.209Z,987.67
2019-01-09T18:22:47.332Z,987.63
2019-01-09T18:23:47.440Z,987.71
2019-01-09T18:24:47.802Z,987.66
2019-01-09T18:25:47.822Z,987.70
2019-01-09T18:26:48.153Z,987.69
2019-01-09T18:27:48.300Z,987.76
2019-01-09T18:28:48.525Z,987.69
2019-01-09T18:29:48.684Z,987.68
2019-01-09T18:30:48.879Z,987.71
2019-01-09T18:31:49.302Z,987.73
2019-01-09T18:35:26.288Z,987.74
2019-01-09T18:36:31.477Z,987.73
2019-01-09T18:37:25.643Z,987.74
2019-01-09T18:38:26.064Z,987.74
2019-01-09T18:40:25.577Z,987.76
2019-01-09T18:41:24.207Z,987.76
2019-01-09T18:42:24.537Z,987.85
2019-01-09T18:43:24.769Z,987.81
2019-01-09T18:44:24.627Z,987.77
2019-01-09T18:45:24.724Z,987.81
2019-01-09T18:46:25.139Z,987.79
2019-01-09T18:47:25.074Z,987.80
2019-01-09T18:48:25.330Z,987.82
2019-01-09T18:49:25.508Z,987.82
2019-01-09T18:50:25.672Z,987.74
2019-01-09T18:51:25.752Z,987.80
2019-01-09T18:52:26.016Z,987.82
2019-01-09T18:53:26.018Z,987.82
2019-01-09T18:54:26.254Z,987.82
2019-01-09T18:55:26.334Z,987.89
2019-01-09T18:56:26.641Z,987.87
2019-01-09T18:57:26.688Z,987.84
2019-01-09T18:58:26.915Z,987.86
2019-01-09T18:59:27.145Z,987.89
2019-01-09T19:00:27.592Z,987.86
2019-01-09T19:02:27.710Z,987.91
2019-01-09T19:03:27.932Z,987.96
2019-01-09T19:04:27.967Z,987.92
2019-01-09T19:05:28.474Z,987.96
2019-01-09T19:06:34.973Z,987.95
2019-01-09T19:07:28.593Z,987.96
2019-01-09T19:08:28.757Z,988.00
2019-01-09T19:09:28.829Z,988.04
2019-01-09T19:10:29.030Z,987.95
2019-01-09T19:11:29.203Z,988.03
2019-01-09T19:12:29.439Z,988.04
2019-01-09T19:13:29.491Z,988.04
2019-01-09T19:14:29.693Z,988.07
2019-01-09T19:15:29.781Z,988.11
2019-01-09T19:16:29.954Z,988.11
2019-01-09T19:17:30.152Z,988.21
2019-01-09T19:18:30.286Z,988.14
2019-01-09T19:19:30.412Z,988.19
2019-01-09T19:20:30.601Z,988.21
2019-01-09T19:21:30.753Z,988.18
2019-01-09T19:22:30.904Z,988.24
2019-01-09T19:23:31.093Z,988.26
2019-01-09T19:24:31.266Z,988.25
2019-01-09T19:25:31.404Z,988.25
2019-01-09T19:26:31.582Z,988.32
2019-01-09T19:27:31.669Z,988.29
2019-01-09T19:28:31.916Z,988.29
2019-01-09T19:29:32.118Z,988.26
2019-01-09T19:30:32.209Z,988.22
2019-01-09T19:31:32.323Z,988.32
2019-01-09T19:32:32.570Z,988.35
2019-01-09T19:33:32.785Z,988.29
2019-01-09T19:34:32.863Z,988.35
2019-01-09T19:35:33.057Z,988.39
2019-01-09T19:36:33.131Z,988.44
2019-01-09T19:37:33.358Z,988.38
2019-01-09T19:38:33.549Z,988.46
2019-01-09T19:39:33.630Z,988.44
2019-01-09T19:40:33.759Z,988.48
2019-01-09T19:41:34.022Z,988.51
2019-01-09T19:42:34.092Z,988.49
2019-01-09T19:43:34.287Z,988.52
2019-01-09T19:44:34.451Z,988.56
2019-01-09T19:45:34.654Z,988.53
2019-01-09T19:46:34.777Z,988.59
2019-01-09T19:47:34.897Z,988.61
2019-01-09T19:48:35.043Z,988.64
2019-01-09T19:49:35.259Z,988.68
2019-01-09T19:50:42.423Z,988.68
2019-01-09T19:51:35.626Z,988.65
2019-01-09T19:52:35.744Z,988.71
2019-01-09T19:53:35.875Z,988.70
2019-01-09T19:54:36.013Z,988.68
2019-01-09T19:55:36.288Z,988.70
2019-01-09T19:56:36.320Z,988.74
2019-01-09T19:57:36.564Z,988.77
2019-01-09T19:58:36.710Z,988.80
2019-01-09T19:59:36.799Z,988.79
2019-01-09T20:00:37.040Z,988.79
2019-01-09T20:01:37.139Z,988.82
2019-01-09T20:02:37.255Z,988.79
2019-01-09T20:03:37.445Z,988.79
2019-01-09T20:04:37.583Z,988.80
2019-01-09T20:05:37.806Z,988.86
2019-01-09T20:06:37.934Z,988.91
2019-01-09T20:07:38.238Z,988.89
2019-01-09T20:08:38.436Z,988.91
2019-01-09T20:09:38.567Z,988.93
2019-01-09T20:10:38.754Z,988.93